Time;durP1;ratioP1;P1;durP2;ratioP2;P2;SDS_P1;SDS_P2;PMS_P1;PMS_P2;Temp;Humidity;BMP_temperature;BMP_pressure;BME280_temperature;BME280_humidity;BME280_pressure;Samples;Min_cycle;Max_cycle;Signal;HPM_P1;HPM_P2
2023/10/25 00:01:27;;;;;;;11.93;4.25;;;;;;;11.12;75.76;100107.53;5047169;28;20507;-60
2023/10/25 00:03:53;;;;;;;8.23;4.28;;;;;;;11.10;75.49;100104.19;5061258;28;20036;-60
2023/10/25 00:06:18;;;;;;;7.53;4.28;;;;;;;11.05;75.76;100103.09;5065155;28;20048;-60
2023/10/25 00:08:43;;;;;;;8.63;4.72;;;;;;;11.09;75.54;100106.16;5067871;28;20083;-60
2023/10/25 00:11:09;;;;;;;6.75;4.60;;;;;;;11.08;75.72;100098.91;5045268;28;20040;-60
2023/10/25 00:13:35;;;;;;;7.95;4.35;;;;;;;11.01;75.52;100098.34;5055241;28;20447;-60
2023/10/25 00:16:02;;;;;;;11.25;5.00;;;;;;;10.97;75.49;100095.28;5059424;28;20104;-61
2023/10/25 00:18:27;;;;;;;10.13;4.50;;;;;;;11.02;75.72;100092.53;5062745;28;20074;-60
2023/10/25 00:20:53;;;;;;;7.85;4.82;;;;;;;10.97;75.23;100086.97;5065354;28;20059;-61
2023/10/25 00:23:19;;;;;;;9.73;4.55;;;;;;;11.01;75.92;100087.25;5056509;28;20025;-61
2023/10/25 00:25:48;;;;;;;10.15;4.60;;;;;;;11.01;75.54;100088.09;5061694;28;20128;-61
2023/10/25 00:28:14;;;;;;;10.68;4.55;;;;;;;11.00;75.34;100086.44;5059463;28;20499;-61
2023/10/25 00:30:39;;;;;;;8.15;4.38;;;;;;;10.96;75.37;100090.84;5060257;28;20032;-61
2023/10/25 00:33:05;;;;;;;8.27;4.53;;;;;;;11.04;75.10;100092.22;5067823;28;20016;-61
2023/10/25 00:35:30;;;;;;;8.70;4.43;;;;;;;11.04;75.50;100086.69;5053406;28;20028;-61
2023/10/25 00:37:58;;;;;;;7.88;4.00;;;;;;;11.02;75.16;100089.75;5061648;28;20029;-61
2023/10/25 00:40:24;;;;;;;9.73;4.07;;;;;;;10.99;75.60;100095.84;5056393;28;20024;-61
2023/10/25 00:42:49;;;;;;;5.13;3.70;;;;;;;10.95;75.51;100091.94;5062773;28;20025;-61
2023/10/25 00:45:15;;;;;;;8.38;3.67;;;;;;;10.97;75.46;100086.13;5066353;28;20035;-61
2023/10/25 00:47:41;;;;;;;7.22;3.83;;;;;;;10.92;75.44;100098.03;5057994;28;20096;-61
2023/10/25 00:50:09;;;;;;;8.90;3.40;;;;;;;10.88;75.68;100098.88;5060069;28;20086;-61
2023/10/25 00:52:36;;;;;;;6.97;3.50;;;;;;;10.88;75.63;100094.16;5066972;28;20040;-61
2023/10/25 00:55:02;;;;;;;6.05;3.47;;;;;;;10.86;75.88;100096.38;5040792;28;20029;-61
2023/10/25 00:57:28;;;;;;;6.15;3.42;;;;;;;10.84;75.76;100093.03;5056445;28;20042;-61
2023/10/25 00:59:53;;;;;;;7.85;3.40;;;;;;;10.84;75.41;100086.63;5064348;28;20029;-61
2023/10/25 01:02:19;;;;;;;6.03;3.20;;;;;;;10.82;75.60;100081.38;5064400;28;20033;-61
2023/10/25 01:04:45;;;;;;;5.50;3.15;;;;;;;10.81;75.88;100074.16;5052677;28;20052;-61
2023/10/25 01:07:10;;;;;;;4.97;3.13;;;;;;;10.80;75.34;100075.25;5066699;28;20137;-61
2023/10/25 01:09:35;;;;;;;7.88;3.38;;;;;;;10.86;75.62;100073.34;5048460;28;20052;-61
2023/10/25 01:12:01;;;;;;;7.68;3.13;;;;;;;10.77;75.42;100079.44;5060090;28;20052;-61
2023/10/25 01:14:27;;;;;;;6.88;3.08;;;;;;;10.78;75.71;100066.38;5069137;28;20528;-62
2023/10/25 01:16:53;;;;;;;5.78;3.08;;;;;;;10.72;75.99;100067.47;5052971;28;20072;-61
2023/10/25 01:19:18;;;;;;;6.85;3.17;;;;;;;10.74;76.23;100065.25;5065576;28;20480;-61
2023/10/25 01:21:43;;;;;;;12.95;3.35;;;;;;;10.73;76.32;100067.19;5058891;28;20029;-61
2023/10/25 01:24:09;;;;;;;9.73;3.20;;;;;;;10.72;76.21;100061.91;5057464;28;20094;-61
2023/10/25 01:26:35;;;;;;;7.40;3.13;;;;;;;10.72;75.95;100056.34;5059883;28;20025;-61
2023/10/25 01:29:01;;;;;;;8.85;3.38;;;;;;;10.69;76.06;100059.66;5068742;28;20386;-61
2023/10/25 01:31:26;;;;;;;7.30;3.08;;;;;;;10.71;76.20;100049.16;5069956;28;20066;-60
2023/10/25 01:33:51;;;;;;;6.85;3.08;;;;;;;10.68;76.41;100044.13;5065864;28;20048;-61
2023/10/25 01:36:17;;;;;;;7.13;3.25;;;;;;;10.71;76.24;100033.31;5051482;28;20021;-61
2023/10/25 01:38:43;;;;;;;7.40;3.05;;;;;;;10.73;76.29;100036.66;5074791;28;20113;-61
2023/10/25 01:41:15;;;;;;;10.18;3.17;;;;;;;10.74;76.09;100029.16;5054810;28;20114;-61
2023/10/25 01:43:41;;;;;;;7.85;3.00;;;;;;;10.74;76.28;100029.16;5054187;28;20025;-61
2023/10/25 01:46:06;;;;;;;10.02;2.80;;;;;;;10.73;76.13;100019.19;5050538;28;20104;-61
2023/10/25 01:48:31;;;;;;;5.47;2.85;;;;;;;10.76;75.97;100018.63;5049787;28;20119;-61
2023/10/25 01:50:57;;;;;;;5.90;2.92;;;;;;;10.73;75.83;100017.25;5047513;28;20021;-61
2023/10/25 01:53:22;;;;;;;8.32;2.63;;;;;;;10.74;75.98;100020.84;5045268;28;20082;-61
2023/10/25 01:55:50;;;;;;;8.07;2.78;;;;;;;10.69;76.23;100020.81;5050525;28;20021;-60
2023/10/25 01:58:16;;;;;;;4.38;2.53;;;;;;;10.69;76.20;100021.66;5054062;28;20476;-61
2023/10/25 02:00:41;;;;;;;6.00;2.50;;;;;;;10.70;76.32;100015.00;5063296;28;20021;-61
2023/10/25 02:03:06;;;;;;;6.32;2.58;;;;;;;10.70;76.14;100003.06;5069281;28;20464;-61
2023/10/25 02:05:32;;;;;;;6.70;2.78;;;;;;;10.69;76.55;100007.78;5071222;28;20460;-61
2023/10/25 02:07:57;;;;;;;4.05;2.40;;;;;;;10.73;76.42;100002.53;5063631;28;20029;-61
2023/10/25 02:10:22;;;;;;;5.20;2.38;;;;;;;10.69;76.61;100002.25;5060030;28;20013;-61
2023/10/25 02:12:47;;;;;;;7.25;2.40;;;;;;;10.69;76.45;100002.25;5057030;28;20483;-61
2023/10/25 02:15:13;;;;;;;6.55;2.60;;;;;;;10.73;76.57;99996.97;5071233;28;20028;-61
2023/10/25 02:17:38;;;;;;;4.68;2.08;;;;;;;10.73;76.63;100003.38;5066205;28;20056;-61
2023/10/25 02:20:04;;;;;;;5.60;2.65;;;;;;;10.71;76.56;99996.41;5065844;28;20028;-61
2023/10/25 02:22:29;;;;;;;5.05;2.47;;;;;;;10.71;76.74;99993.63;5059200;28;20041;-61
2023/10/25 02:24:54;;;;;;;5.55;2.30;;;;;;;10.71;76.87;99985.31;5062461;28;20125;-62
2023/10/25 02:27:19;;;;;;;7.85;2.22;;;;;;;10.71;76.78;99985.31;5044680;28;20039;-61
2023/10/25 02:29:45;;;;;;;6.53;2.60;;;;;;;10.69;76.98;99977.28;5065155;28;20021;-61
2023/10/25 02:32:10;;;;;;;5.03;2.20;;;;;;;10.71;76.81;99979.75;5065386;28;20035;-61
2023/10/25 02:34:36;;;;;;;8.68;2.28;;;;;;;10.69;77.04;99973.63;5057546;28;20033;-61
2023/10/25 02:37:02;;;;;;;6.13;2.30;;;;;;;10.69;77.23;99962.53;5046209;28;20035;-61
2023/10/25 02:39:27;;;;;;;6.07;2.22;;;;;;;10.72;77.23;99961.97;5070270;28;20383;-61
2023/10/25 02:41:52;;;;;;;6.55;1.98;;;;;;;10.68;77.04;99956.16;5065010;28;20566;-61
2023/10/25 02:44:20;;;;;;;6.38;2.13;;;;;;;10.70;77.15;99953.94;5058688;28;20028;-61
2023/10/25 02:46:45;;;;;;;6.75;2.30;;;;;;;10.66;77.50;99952.00;5063940;28;20134;-61
2023/10/25 02:49:10;;;;;;;6.15;2.20;;;;;;;10.68;77.58;99952.53;5063165;28;20116;-61
2023/10/25 02:51:38;;;;;;;4.55;2.03;;;;;;;10.68;77.39;99952.53;5055215;28;20158;-61
2023/10/25 02:54:04;;;;;;;6.40;2.53;;;;;;;10.71;77.19;99938.13;5060964;28;20066;-61
2023/10/25 02:56:29;;;;;;;5.00;2.47;;;;;;;10.68;77.63;99936.72;5063971;28;20769;-61
2023/10/25 02:58:54;;;;;;;5.50;2.50;;;;;;;10.68;77.67;99933.13;5056771;28;20055;-61
2023/10/25 03:01:23;;;;;;;5.72;2.30;;;;;;;10.71;77.23;99936.19;5063072;28;20033;-61
2023/10/25 03:03:49;;;;;;;4.85;2.10;;;;;;;10.71;77.48;99935.34;5063417;28;20025;-62
2023/10/25 03:06:14;;;;;;;5.00;2.28;;;;;;;10.69;77.79;99926.44;5055314;28;20029;-61
2023/10/25 03:08:40;;;;;;;8.13;2.70;;;;;;;10.71;77.68;99921.47;5068415;28;20688;-61
2023/10/25 03:11:05;;;;;;;5.15;2.45;;;;;;;10.73;77.65;99920.09;5054063;28;20035;-61
2023/10/25 03:13:31;;;;;;;4.68;2.58;;;;;;;10.78;77.71;99927.59;5065404;28;20032;-62
2023/10/25 03:15:57;;;;;;;4.35;2.47;;;;;;;10.73;77.74;99925.66;5056617;28;20028;-61
2023/10/25 03:18:22;;;;;;;6.82;2.42;;;;;;;10.73;77.69;99913.72;5073378;28;20024;-62
2023/10/25 03:20:48;;;;;;;4.45;1.95;;;;;;;10.76;77.85;99913.13;5052758;28;21537;-61
2023/10/25 03:23:13;;;;;;;6.90;2.28;;;;;;;10.76;77.97;99913.13;5065012;28;20377;-61
2023/10/25 03:25:38;;;;;;;5.47;2.15;;;;;;;10.78;77.87;99902.59;5048649;28;20045;-62
2023/10/25 03:28:04;;;;;;;5.97;2.38;;;;;;;10.78;77.95;99905.38;5060624;28;20068;-62
2023/10/25 03:30:29;;;;;;;7.90;2.58;;;;;;;10.77;77.93;99903.72;5056424;28;20029;-61
2023/10/25 03:32:54;;;;;;;5.43;2.03;;;;;;;10.80;77.84;99903.97;5070573;28;20028;-61
2023/10/25 03:35:19;;;;;;;4.45;2.53;;;;;;;10.78;77.77;99894.28;5052867;28;20024;-61
2023/10/25 03:37:45;;;;;;;4.20;2.20;;;;;;;10.79;77.83;99902.31;5049466;28;20025;-61
2023/10/25 03:40:11;;;;;;;5.95;2.70;;;;;;;10.77;77.95;99898.16;5054439;28;20028;-61
2023/10/25 03:42:40;;;;;;;6.88;2.40;;;;;;;10.72;78.08;99896.19;5063467;28;20038;-61
2023/10/25 03:45:06;;;;;;;9.45;2.75;;;;;;;10.74;78.13;99898.72;5046115;28;20028;-62
2023/10/25 03:47:34;;;;;;;5.45;2.30;;;;;;;10.74;77.97;99888.44;5061520;28;20436;-61
2023/10/25 03:50:03;;;;;;;6.05;2.20;;;;;;;10.72;78.15;99893.44;5061448;28;20025;-61
2023/10/25 03:52:28;;;;;;;9.43;2.28;;;;;;;10.78;77.99;99888.72;5051823;28;20104;-62
2023/10/25 03:54:54;;;;;;;4.90;2.50;;;;;;;10.80;77.85;99892.03;5050583;28;20116;-61
2023/10/25 03:57:19;;;;;;;7.00;2.50;;;;;;;10.77;78.05;99887.06;5042276;28;20031;-61
2023/10/25 03:59:44;;;;;;;4.60;2.33;;;;;;;10.80;77.90;99883.72;5053616;28;20044;-62
2023/10/25 04:02:09;;;;;;;6.20;2.50;;;;;;;10.83;77.62;99874.84;5049660;28;20040;-61
2023/10/25 04:04:35;;;;;;;6.22;2.47;;;;;;;10.75;77.69;99883.72;5046934;28;20024;-62
2023/10/25 04:07:00;;;;;;;7.10;2.50;;;;;;;10.78;77.80;99883.16;5050135;28;20025;-62
2023/10/25 04:09:25;;;;;;;6.15;2.40;;;;;;;10.79;77.90;99882.06;5052803;28;20049;-61
2023/10/25 04:11:51;;;;;;;6.75;2.47;;;;;;;10.78;77.74;99880.41;5046923;28;20071;-61
2023/10/25 04:14:16;;;;;;;3.28;2.35;;;;;;;10.74;78.03;99877.34;5052808;28;20108;-61
2023/10/25 04:16:41;;;;;;;7.15;2.63;;;;;;;10.75;78.19;99869.84;5046198;28;20029;-61
2023/10/25 04:19:07;;;;;;;5.53;2.35;;;;;;;10.76;78.02;99877.06;5052019;28;20082;-61
2023/10/25 04:21:32;;;;;;;8.50;2.65;;;;;;;10.76;78.54;99874.28;5051260;28;20122;-61
2023/10/25 04:23:58;;;;;;;4.55;2.50;;;;;;;10.77;78.12;99884.28;5040547;28;20084;-62
2023/10/25 04:26:23;;;;;;;7.22;2.78;;;;;;;10.74;78.05;99871.78;5058848;28;20047;-61
2023/10/25 04:28:48;;;;;;;6.35;2.90;;;;;;;10.76;78.09;99877.06;5054503;28;20060;-61
2023/10/25 04:31:14;;;;;;;7.47;3.15;;;;;;;10.74;78.46;99873.75;5062503;28;20035;-61
2023/10/25 04:33:39;;;;;;;4.95;2.95;;;;;;;10.75;78.42;99867.06;5063102;28;20457;-61
2023/10/25 04:36:06;;;;;;;5.53;2.75;;;;;;;10.73;78.04;99866.53;5063048;28;20107;-61
2023/10/25 04:38:31;;;;;;;10.80;3.40;;;;;;;10.72;78.46;99859.28;5062007;28;20533;-61
2023/10/25 04:41:00;;;;;;;6.55;3.20;;;;;;;10.73;78.56;99864.59;5064691;28;20025;-61
2023/10/25 04:43:28;;;;;;;8.38;3.38;;;;;;;10.70;78.34;99855.97;5064677;28;20424;-61
2023/10/25 04:45:53;;;;;;;5.13;3.05;;;;;;;10.73;78.41;99844.31;5056999;28;20507;-61
2023/10/25 04:48:19;;;;;;;8.23;3.22;;;;;;;10.73;78.46;99841.56;5064569;28;20032;-61
2023/10/25 04:50:44;;;;;;;6.63;3.25;;;;;;;10.70;78.36;99847.66;5052890;28;20025;-60
2023/10/25 04:53:10;;;;;;;5.20;2.60;;;;;;;10.70;78.73;99850.44;5068460;28;20020;-61
2023/10/25 04:55:36;;;;;;;7.22;3.13;;;;;;;10.70;78.56;99839.31;5059327;28;20041;-61
2023/10/25 04:58:05;;;;;;;9.93;3.30;;;;;;;10.70;78.83;99826.28;5041178;28;20047;-61
2023/10/25 05:00:34;;;;;;;8.70;3.22;;;;;;;10.75;78.42;99817.94;5046165;28;20075;-61
2023/10/25 05:03:04;;;;;;;7.22;3.10;;;;;;;10.72;78.53;99821.25;5052912;28;20417;-60
2023/10/25 05:05:30;;;;;;;7.70;3.20;;;;;;;10.73;78.34;99816.56;5064202;28;20052;-61
2023/10/25 05:07:58;;;;;;;11.50;3.10;;;;;;;10.76;78.54;99811.25;5056194;28;20060;-61
2023/10/25 05:10:24;;;;;;;6.85;2.85;;;;;;;10.77;78.42;99804.63;5073144;28;20046;-61
2023/10/25 05:12:50;;;;;;;9.68;2.90;;;;;;;10.76;78.66;99810.44;5056077;28;20484;-62
2023/10/25 05:15:17;;;;;;;10.73;3.42;;;;;;;10.76;78.64;99802.94;5069746;28;20108;-61
2023/10/25 05:17:44;;;;;;;7.43;3.10;;;;;;;10.79;78.45;99807.94;5072887;28;20120;-61
2023/10/25 05:20:11;;;;;;;9.15;3.78;;;;;;;10.76;78.72;99791.00;5054164;28;20563;-62
2023/10/25 05:22:38;;;;;;;6.13;2.72;;;;;;;10.76;78.46;99786.28;5042576;28;20044;-62
2023/10/25 05:25:06;;;;;;;6.47;3.03;;;;;;;10.77;78.64;99787.16;5040531;28;20049;-62
2023/10/25 05:27:32;;;;;;;6.65;3.00;;;;;;;10.77;78.58;99789.91;5043210;28;20396;-62
2023/10/25 05:30:03;;;;;;;6.72;3.15;;;;;;;10.78;78.59;99783.25;5047956;28;20071;-62
2023/10/25 05:32:30;;;;;;;7.40;2.83;;;;;;;10.78;78.39;99786.03;5037693;28;20036;-62
2023/10/25 05:35:00;;;;;;;8.75;3.00;;;;;;;10.73;78.69;99783.28;5056298;28;20029;-62
2023/10/25 05:37:26;;;;;;;5.20;2.60;;;;;;;10.74;79.06;99771.88;5062837;28;20041;-64
2023/10/25 05:39:52;;;;;;;7.30;2.55;;;;;;;10.70;78.80;99764.41;5044055;28;20035;-62
2023/10/25 05:42:21;;;;;;;8.43;2.72;;;;;;;10.74;78.90;99769.09;5043921;28;20178;-62
2023/10/25 05:44:56;;;;;;;9.18;3.10;;;;;;;10.73;78.73;99769.41;5048843;28;20029;-62
2023/10/25 05:47:40;;;;;;;5.32;2.63;;;;;;;10.74;78.67;99769.09;5047441;28;20040;-62
2023/10/25 05:50:06;;;;;;;5.05;2.55;;;;;;;10.72;78.49;99760.22;5051642;28;20033;-61
2023/10/25 05:52:33;;;;;;;4.95;2.83;;;;;;;10.77;78.46;99757.44;5052374;28;20473;-61
2023/10/25 05:55:01;;;;;;;8.70;2.67;;;;;;;10.75;78.41;99756.88;5049675;28;20064;-61
2023/10/25 05:57:27;;;;;;;7.53;2.72;;;;;;;10.71;78.39;99755.78;5041401;28;20065;-60
2023/10/25 05:59:52;;;;;;;7.07;2.85;;;;;;;10.74;78.78;99754.41;5043686;28;20488;-61
2023/10/25 06:02:22;;;;;;;7.53;3.05;;;;;;;10.73;78.42;99750.78;5053010;28;20029;-61
2023/10/25 06:04:48;;;;;;;5.05;2.95;;;;;;;10.76;78.76;99757.69;5053134;28;20051;-61
2023/10/25 06:07:14;;;;;;;7.13;2.80;;;;;;;10.73;78.95;99755.50;5038019;28;20080;-61
2023/10/25 06:09:40;;;;;;;5.90;2.85;;;;;;;10.75;78.91;99753.28;5051888;28;20144;-61
2023/10/25 06:12:07;;;;;;;6.88;2.90;;;;;;;10.74;78.86;99754.41;5054993;28;20083;-60
2023/10/25 06:14:32;;;;;;;7.90;2.72;;;;;;;10.74;78.92;99749.66;5049744;28;20033;-61
2023/10/25 06:16:58;;;;;;;8.10;2.92;;;;;;;10.72;79.14;99745.50;5043323;28;20368;-61
2023/10/25 06:19:25;;;;;;;6.18;2.80;;;;;;;10.76;78.84;99750.19;5055567;28;20115;-60
2023/10/25 06:21:51;;;;;;;6.47;3.10;;;;;;;10.76;79.29;99739.09;5053832;28;20025;-59
2023/10/25 06:24:16;;;;;;;10.20;3.45;;;;;;;10.80;79.16;99726.31;5046368;28;20041;-60
2023/10/25 06:26:42;;;;;;;4.22;2.30;;;;;;;10.80;79.10;99736.59;5042023;28;20087;-60
2023/10/25 06:29:08;;;;;;;4.80;2.80;;;;;;;10.79;78.98;99726.63;5045513;28;20037;-60
2023/10/25 06:31:33;;;;;;;7.07;2.70;;;;;;;10.84;79.02;99720.22;5036007;28;20044;-61
2023/10/25 06:33:58;;;;;;;8.02;2.80;;;;;;;10.82;78.73;99720.50;5035037;28;20477;-60
2023/10/25 06:36:24;;;;;;;6.75;2.53;;;;;;;10.85;78.56;99716.34;5047933;28;20051;-59
2023/10/25 06:38:50;;;;;;;6.97;2.30;;;;;;;10.85;78.80;99706.06;5055194;28;20029;-60
2023/10/25 06:41:17;;;;;;;5.43;2.40;;;;;;;10.87;78.63;99712.16;5050791;28;20390;-61
2023/10/25 06:43:43;;;;;;;4.60;2.30;;;;;;;10.89;78.73;99707.16;5047473;28;20095;-60
2023/10/25 06:46:09;;;;;;;6.25;2.47;;;;;;;10.90;78.48;99700.50;5053702;28;20460;-62
2023/10/25 06:48:41;;;;;;;6.93;2.30;;;;;;;10.88;78.78;99707.44;5040427;28;20509;-60
2023/10/25 06:51:08;;;;;;;5.65;2.33;;;;;;;10.90;78.74;99694.94;5047946;28;20025;-60
2023/10/25 06:53:33;;;;;;;4.20;2.40;;;;;;;10.90;78.71;99683.84;5050135;28;20028;-60
2023/10/25 06:55:59;;;;;;;7.22;2.90;;;;;;;10.91;78.51;99688.25;5059087;28;20025;-60
2023/10/25 06:58:25;;;;;;;3.90;2.28;;;;;;;10.90;78.21;99680.22;5055355;28;20079;-60
2023/10/25 07:00:58;;;;;;;7.13;2.53;;;;;;;10.87;78.32;99684.41;5046004;28;20046;-60
2023/10/25 07:03:34;;;;;;;3.60;2.15;;;;;;;10.90;78.44;99669.13;5048668;28;20040;-60
2023/10/25 07:06:01;;;;;;;5.40;2.70;;;;;;;10.90;78.32;99669.94;5051303;28;20111;-60
2023/10/25 07:08:27;;;;;;;6.15;2.42;;;;;;;10.89;78.63;99668.31;5057783;28;20078;-60
2023/10/25 07:10:53;;;;;;;4.25;2.20;;;;;;;10.86;78.56;99656.94;5048496;28;20440;-61
2023/10/25 07:13:18;;;;;;;6.78;2.20;;;;;;;10.88;78.22;99655.50;5056740;28;20071;-61
2023/10/25 07:15:43;;;;;;;7.68;2.63;;;;;;;10.87;78.58;99658.59;5051770;28;20473;-61
2023/10/25 07:18:08;;;;;;;6.90;2.50;;;;;;;10.85;78.66;99649.72;5061306;28;20072;-60
2023/10/25 07:20:34;;;;;;;4.28;2.30;;;;;;;10.88;78.73;99649.97;5044396;28;20503;-61
2023/10/25 07:23:00;;;;;;;3.58;2.15;;;;;;;10.88;78.35;99657.47;5051537;28;20476;-61
2023/10/25 07:25:25;;;;;;;4.82;2.47;;;;;;;10.87;79.06;99658.59;5056340;28;20065;-60
2023/10/25 07:27:53;;;;;;;5.75;2.65;;;;;;;10.85;78.95;99655.28;5053925;28;20503;-60
2023/10/25 07:30:19;;;;;;;4.03;2.28;;;;;;;10.85;78.69;99652.50;5034987;28;20962;-60
2023/10/25 07:32:53;;;;;;;6.55;2.33;;;;;;;10.89;79.05;99648.88;5044551;28;20047;-61
2023/10/25 07:35:18;;;;;;;6.63;2.22;;;;;;;10.89;79.32;99643.31;5050771;28;20112;-59
2023/10/25 07:37:43;;;;;;;6.03;2.28;;;;;;;10.90;79.10;99642.19;5055185;28;20421;-60
2023/10/25 07:40:09;;;;;;;6.00;2.28;;;;;;;10.91;79.05;99638.28;5047949;28;20032;-59
2023/10/25 07:42:35;;;;;;;4.47;2.70;;;;;;;10.92;79.33;99639.13;5045438;28;20113;-61
2023/10/25 07:45:00;;;;;;;4.32;2.20;;;;;;;10.94;78.99;99623.84;5036507;28;20020;-60
2023/10/25 07:47:28;;;;;;;9.85;2.60;;;;;;;10.96;79.00;99627.16;5045319;28;20033;-60
2023/10/25 07:49:55;;;;;;;8.93;2.50;;;;;;;10.98;79.36;99615.78;5045345;28;20071;-60
2023/10/25 07:52:22;;;;;;;6.25;2.63;;;;;;;11.07;80.72;99617.66;5046579;28;20055;-61
2023/10/25 07:54:48;;;;;;;7.13;2.53;;;;;;;11.10;78.96;99607.09;5063070;28;20510;-61
2023/10/25 07:57:13;;;;;;;3.90;2.08;;;;;;;11.10;78.96;99604.31;5049117;28;20034;-61
2023/10/25 07:59:38;;;;;;;7.15;2.47;;;;;;;11.07;78.89;99602.94;5042877;28;20082;-61
2023/10/25 08:02:04;;;;;;;5.38;2.35;;;;;;;11.06;79.29;99590.19;5039978;28;20032;-61
2023/10/25 08:04:29;;;;;;;5.53;2.30;;;;;;;11.04;79.42;99582.16;5031495;28;20037;-61
2023/10/25 08:06:55;;;;;;;3.95;2.45;;;;;;;11.09;79.22;99586.00;5037085;28;23208;-60
2023/10/25 08:09:20;;;;;;;5.18;2.70;;;;;;;11.07;79.11;99592.66;5047621;28;20037;-62
2023/10/25 08:11:45;;;;;;;9.95;2.60;;;;;;;11.10;79.23;99590.44;5041384;28;20032;-59
2023/10/25 08:14:11;;;;;;;7.88;2.58;;;;;;;11.05;79.47;99594.09;5044509;28;20078;-58
2023/10/25 08:16:39;;;;;;;6.03;2.33;;;;;;;11.08;79.58;99576.81;5031883;28;20037;-59
2023/10/25 08:19:06;;;;;;;4.50;2.60;;;;;;;11.05;79.63;99569.91;5049517;28;20545;-61
2023/10/25 08:21:32;;;;;;;7.20;3.05;;;;;;;11.08;79.69;99571.28;5040908;28;20099;-61
2023/10/25 08:23:57;;;;;;;5.57;2.63;;;;;;;11.10;79.40;99566.28;5044592;28;20435;-60
2023/10/25 08:26:25;;;;;;;5.55;2.80;;;;;;;11.07;79.57;99564.91;5037402;28;20065;-62
2023/10/25 08:28:51;;;;;;;6.70;2.70;;;;;;;11.07;79.69;99559.34;5057569;28;20068;-63
2023/10/25 08:31:18;;;;;;;6.10;2.88;;;;;;;11.09;79.75;99559.06;5051132;28;20729;-62
2023/10/25 08:33:44;;;;;;;4.55;3.00;;;;;;;11.12;79.99;99568.75;5042820;28;20021;-61
2023/10/25 08:36:10;;;;;;;6.43;2.80;;;;;;;11.14;80.18;99552.66;5043504;28;20041;-61
2023/10/25 08:38:35;;;;;;;6.35;2.70;;;;;;;11.15;79.95;99545.97;5060091;28;20170;-61
2023/10/25 08:41:05;;;;;;;4.18;2.63;;;;;;;11.14;80.09;99535.97;5055049;28;20028;-61
2023/10/25 08:43:32;;;;;;;9.15;2.83;;;;;;;11.14;80.04;99536.81;5028913;28;20037;-62
2023/10/25 08:45:57;;;;;;;5.05;2.88;;;;;;;11.17;79.93;99524.31;5039201;28;20025;-62
2023/10/25 08:48:26;;;;;;;5.78;2.70;;;;;;;11.17;80.13;99521.53;5038982;28;20047;-62
2023/10/25 08:50:52;;;;;;;6.43;3.05;;;;;;;11.15;80.19;99516.25;5042361;28;20368;-62
2023/10/25 08:53:28;;;;;;;6.75;2.47;;;;;;;11.20;80.04;99520.94;5040959;28;20033;-61
2023/10/25 08:55:55;;;;;;;8.77;2.88;;;;;;;11.20;80.09;99529.25;5045580;28;20022;-61
2023/10/25 08:58:24;;;;;;;7.15;2.67;;;;;;;11.19;79.82;99520.09;5045761;28;20021;-62
2023/10/25 09:00:51;;;;;;;6.07;3.20;;;;;;;11.18;80.13;99507.34;5049407;28;20114;-62
2023/10/25 09:03:31;;;;;;;7.97;2.72;;;;;;;11.21;80.30;99505.94;5039251;28;20041;-62
2023/10/25 09:06:05;;;;;;;6.20;2.63;;;;;;;11.17;80.28;99500.13;5047458;28;20102;-62
2023/10/25 09:08:31;;;;;;;4.97;2.67;;;;;;;11.15;80.32;99498.75;5040358;28;20086;-62
2023/10/25 09:11:00;;;;;;;6.03;2.85;;;;;;;11.15;80.62;99494.03;5049553;28;20033;-62
2023/10/25 09:13:25;;;;;;;7.03;2.63;;;;;;;11.14;80.61;99492.38;5042341;28;20315;-62
2023/10/25 09:15:51;;;;;;;5.15;2.90;;;;;;;11.15;80.86;99494.03;5055985;28;20507;-62
2023/10/25 09:18:16;;;;;;;8.07;2.97;;;;;;;11.15;80.93;99490.44;5049700;28;20316;-62
2023/10/25 09:20:48;;;;;;;6.47;2.95;;;;;;;11.16;81.11;99492.94;5051113;28;20465;-62
2023/10/25 09:23:15;;;;;;;13.23;2.72;;;;;;;11.16;80.89;99490.16;5050159;28;20480;-61
2023/10/25 09:25:46;;;;;;;8.65;3.13;;;;;;;11.14;81.21;99489.59;5043657;28;20041;-61
2023/10/25 09:28:15;;;;;;;5.53;2.90;;;;;;;11.14;81.53;99502.66;5050045;28;20036;-62
2023/10/25 09:30:42;;;;;;;4.07;2.97;;;;;;;11.13;81.39;99493.50;5052641;28;20585;-62
2023/10/25 09:33:07;;;;;;;5.88;3.00;;;;;;;11.17;81.50;99490.97;5050325;28;20117;-61
2023/10/25 09:35:32;;;;;;;5.75;2.88;;;;;;;11.15;81.86;99490.44;5034909;28;20155;-61
2023/10/25 09:37:57;;;;;;;4.80;3.10;;;;;;;11.13;81.93;99473.25;5040108;28;20494;-61
2023/10/25 09:40:24;;;;;;;6.25;3.05;;;;;;;11.14;81.80;99463.78;5031808;28;20028;-61
2023/10/25 09:42:53;;;;;;;5.15;2.58;;;;;;;11.12;82.10;99457.69;5038576;28;20040;-62
2023/10/25 09:45:27;;;;;;;5.75;3.22;;;;;;;11.07;82.01;99453.00;5036025;28;20064;-61
2023/10/25 09:47:56;;;;;;;6.10;3.38;;;;;;;11.10;82.14;99451.59;5053568;28;20024;-61
2023/10/25 09:50:32;;;;;;;5.85;4.10;;;;;;;11.11;82.25;99453.25;5041130;28;20032;-60
2023/10/25 09:53:10;;;;;;;7.55;3.78;;;;;;;11.11;82.19;99442.13;5035751;28;20078;-61
2023/10/25 09:55:40;;;;;;;7.72;4.13;;;;;;;11.11;82.61;99442.97;5043739;28;20024;-58
2023/10/25 09:58:10;;;;;;;5.75;3.65;;;;;;;11.11;82.55;99433.81;5052392;28;20028;-61
2023/10/25 10:00:36;;;;;;;7.07;4.07;;;;;;;11.11;82.58;99436.59;5058534;28;20074;-61
2023/10/25 10:03:16;;;;;;;7.03;3.92;;;;;;;11.12;82.95;99439.09;5049407;28;20044;-61
2023/10/25 10:05:52;;;;;;;9.05;4.20;;;;;;;11.10;82.79;99424.66;5045759;28;20025;-61
2023/10/25 10:08:23;;;;;;;6.07;3.72;;;;;;;11.11;83.08;99425.47;5042608;28;20040;-63
2023/10/25 10:10:55;;;;;;;7.47;4.68;;;;;;;11.10;82.82;99415.50;5054095;28;20029;-63
2023/10/25 10:13:21;;;;;;;7.28;4.47;;;;;;;11.10;82.86;99405.22;5049414;28;20036;-62
2023/10/25 10:16:09;;;;;;;6.28;4.65;;;;;;;11.13;83.33;99409.38;5048220;28;20082;-63
2023/10/25 10:18:35;;;;;;;6.75;4.55;;;;;;;11.12;83.23;99393.81;5041192;28;20025;-62
2023/10/25 10:21:03;;;;;;;8.23;4.28;;;;;;;11.07;83.53;99395.50;5045155;28;20558;-64
2023/10/25 10:23:49;;;;;;;4.90;3.80;;;;;;;11.12;83.11;99391.88;5039345;28;20125;-63
2023/10/25 10:26:43;;;;;;;5.97;4.40;;;;;;;11.13;83.29;99370.50;5047579;28;20048;-64
2023/10/25 10:29:45;;;;;;;7.75;4.10;;;;;;;11.16;83.21;99367.09;5046634;28;20048;-64
2023/10/25 10:32:11;;;;;;;7.13;4.45;;;;;;;11.07;83.90;99355.81;5013575;28;20113;-65
2023/10/25 10:34:48;;;;;;;6.05;4.05;;;;;;;11.06;84.08;99352.22;5031280;28;20512;-66
2023/10/25 10:37:19;;;;;;;5.78;4.28;;;;;;;11.04;83.93;99357.25;5049697;28;20057;-66
2023/10/25 10:39:56;;;;;;;7.03;4.50;;;;;;;11.05;83.97;99350.56;5052575;28;20029;-66
2023/10/25 10:42:30;;;;;;;6.13;4.15;;;;;;;11.02;84.51;99350.31;5054000;28;20053;-65
2023/10/25 10:44:56;;;;;;;7.75;4.20;;;;;;;10.99;84.52;99345.34;5054769;28;20037;-66
2023/10/25 10:47:45;;;;;;;5.60;4.35;;;;;;;10.99;84.69;99345.34;5059884;28;20029;-66
2023/10/25 10:50:16;;;;;;;6.60;3.95;;;;;;;10.97;84.97;99329.00;5036579;28;20484;-64
2023/10/25 10:52:45;;;;;;;5.10;3.88;;;;;;;10.99;84.78;99328.69;5042141;28;20111;-65
2023/10/25 10:55:14;;;;;;;5.22;4.07;;;;;;;10.99;84.97;99321.19;5038704;28;20037;-65
2023/10/25 10:57:39;;;;;;;4.82;4.20;;;;;;;11.00;84.95;99311.75;5047991;28;20083;-65
2023/10/25 11:00:09;;;;;;;6.22;3.90;;;;;;;11.00;85.31;99306.22;5053156;28;20587;-64
2023/10/25 11:02:37;;;;;;;6.68;3.97;;;;;;;11.00;85.25;99300.66;5053009;28;20025;-65
2023/10/25 11:05:07;;;;;;;5.38;4.20;;;;;;;11.00;85.33;99295.09;5059794;28;20780;-65
2023/10/25 11:07:33;;;;;;;5.32;3.80;;;;;;;10.96;85.40;99291.22;5065137;28;20035;-66
2023/10/25 11:09:59;;;;;;;8.60;4.00;;;;;;;10.98;85.90;99294.56;5049253;28;20025;-65
2023/10/25 11:12:24;;;;;;;6.40;4.00;;;;;;;10.99;85.59;99279.53;5036988;28;20121;-65
2023/10/25 11:14:50;;;;;;;5.78;3.92;;;;;;;10.99;85.94;99273.16;5043842;28;20025;-65
2023/10/25 11:17:16;;;;;;;3.97;3.22;;;;;;;11.00;85.71;99272.03;5050701;28;20025;-66
2023/10/25 11:19:47;;;;;;;6.88;4.05;;;;;;;10.97;86.06;99276.25;5044223;28;20031;-63
2023/10/25 11:22:13;;;;;;;7.30;3.90;;;;;;;10.97;85.95;99269.88;5048040;28;20028;-64
2023/10/25 11:24:38;;;;;;;5.93;3.53;;;;;;;10.96;86.34;99263.47;5057441;28;20060;-64
2023/10/25 11:27:04;;;;;;;5.10;3.70;;;;;;;10.99;86.34;99262.88;5035662;28;20477;-64
2023/10/25 11:29:37;;;;;;;4.85;3.42;;;;;;;11.01;86.38;99259.84;5040101;28;20071;-64
2023/10/25 11:32:06;;;;;;;6.43;3.60;;;;;;;10.98;86.34;99250.13;5034832;28;20060;-63